Time;durP1;ratioP1;P1;durP2;ratioP2;P2;SDS_P1;SDS_P2;PMS_P1;PMS_P2;Temp;Humidity;BMP_temperature;BMP_pressure;BME280_temperature;BME280_humidity;BME280_pressure;Samples;Min_cycle;Max_cycle;Signal;HPM_P1;HPM_P2
2022/04/01 00:02:13;;;;;;;1.60;1.50;;;3.10;99.90;;;;;;4899786;29;20481;-90
2022/04/01 00:05:02;;;;;;;1.13;1.03;;;3.10;99.90;;;;;;4901237;29;20454;-90
2022/04/01 00:07:52;;;;;;;2.23;1.20;;;3.20;99.90;;;;;;4896633;29;20613;-91
2022/04/01 00:10:41;;;;;;;2.60;1.20;;;3.20;99.90;;;;;;4895965;29;20981;-90
2022/04/01 00:13:29;;;;;;;1.20;1.10;;;3.20;99.90;;;;;;4900998;29;20458;-90
2022/04/01 00:16:20;;;;;;;1.50;1.40;;;3.20;99.90;;;;;;4895190;29;20558;-90
2022/04/01 00:19:09;;;;;;;1.40;0.97;;;3.10;99.90;;;;;;4898624;29;20473;-90
2022/04/01 00:21:59;;;;;;;1.60;1.20;;;3.10;99.90;;;;;;4901568;29;20484;-90
2022/04/01 00:24:48;;;;;;;1.80;1.00;;;3.20;99.90;;;;;;4896308;29;20553;-89
2022/04/01 00:27:37;;;;;;;1.37;1.27;;;3.20;99.90;;;;;;4896015;29;20503;-90
2022/04/01 00:30:26;;;;;;;1.20;1.10;;;3.10;99.90;;;;;;4893472;29;20541;-90
2022/04/01 00:33:16;;;;;;;2.50;1.47;;;3.10;99.90;;;;;;4898431;29;20546;-90
2022/04/01 00:36:05;;;;;;;1.33;1.23;;;3.10;99.90;;;;;;4900531;29;20569;-89
2022/04/01 00:38:54;;;;;;;1.23;0.90;;;3.10;99.90;;;;;;4892428;29;20549;-90
2022/04/01 00:41:45;;;;;;;2.10;1.60;;;3.10;99.90;;;;;;4903901;29;20512;-89
2022/04/01 00:44:35;;;;;;;1.43;1.33;;;3.10;99.90;;;;;;4896099;29;20944;-90
2022/04/01 00:47:24;;;;;;;1.30;1.20;;;3.10;99.90;;;;;;4890359;29;20498;-89
2022/04/01 00:50:12;;;;;;;2.00;1.33;;;3.10;99.90;;;;;;4889125;29;20470;-90
2022/04/01 00:53:01;;;;;;;3.20;1.07;;;3.10;99.90;;;;;;4892354;29;20490;-89
2022/04/01 00:55:51;;;;;;;1.30;1.07;;;3.10;99.90;;;;;;4897563;29;20477;-88
2022/04/01 00:58:44;;;;;;;1.57;1.37;;;3.10;99.90;;;;;;4895436;29;20458;-89
2022/04/01 01:01:35;;;;;;;2.33;1.20;;;3.20;99.90;;;;;;4897025;29;20450;-88
2022/04/01 01:04:24;;;;;;;1.33;1.23;;;3.10;99.90;;;;;;4897583;29;20461;-90
2022/04/01 01:07:14;;;;;;;0.93;0.93;;;3.10;99.90;;;;;;4898275;29;20529;-89
2022/04/01 01:10:03;;;;;;;2.40;1.20;;;3.10;99.90;;;;;;4892289;29;22128;-89
2022/04/01 01:12:53;;;;;;;1.40;1.30;;;3.10;99.90;;;;;;4897735;29;20545;-89
2022/04/01 01:15:43;;;;;;;1.27;1.17;;;3.10;99.90;;;;;;4896923;29;20474;-89
2022/04/01 01:18:32;;;;;;;4.03;1.60;;;3.20;99.90;;;;;;4895453;29;20660;-89
2022/04/01 01:21:21;;;;;;;2.13;1.40;;;3.20;99.90;;;;;;4891882;29;20473;-90
2022/04/01 01:24:13;;;;;;;1.00;0.93;;;3.20;99.90;;;;;;4899972;29;20466;-89
2022/04/01 01:27:06;;;;;;;2.13;1.30;;;3.20;99.90;;;;;;4892881;29;20514;-89
2022/04/01 01:29:55;;;;;;;1.50;1.23;;;3.20;99.90;;;;;;4901708;29;20491;-89
2022/04/01 01:32:44;;;;;;;1.13;1.10;;;3.10;99.90;;;;;;4899932;29;20540;-89
2022/04/01 01:35:33;;;;;;;1.20;1.10;;;3.10;99.90;;;;;;4898208;29;20485;-89
2022/04/01 01:38:21;;;;;;;1.60;1.23;;;3.10;99.90;;;;;;4894108;29;20525;-89
2022/04/01 01:41:10;;;;;;;2.00;1.40;;;3.10;99.90;;;;;;4891147;29;20485;-90
2022/04/01 01:44:00;;;;;;;1.27;1.17;;;3.10;99.90;;;;;;4893452;29;20477;-90
2022/04/01 01:46:49;;;;;;;1.73;1.23;;;3.10;99.90;;;;;;4896737;29;20469;-90
2022/04/01 01:49:37;;;;;;;2.27;1.20;;;3.10;99.90;;;;;;4901071;29;20493;-89
2022/04/01 01:55:32;;;;;;;1.63;1.27;;;3.10;99.90;;;;;;4896143;29;20507;-89
2022/04/01 01:58:21;;;;;;;1.50;1.20;;;3.10;99.90;;;;;;4895955;29;20482;-90
2022/04/01 02:01:11;;;;;;;3.43;1.70;;;3.10;99.90;;;;;;4899100;29;20489;-90
2022/04/01 02:04:01;;;;;;;2.80;1.43;;;3.10;99.90;;;;;;4895776;29;20490;-90
2022/04/01 02:06:49;;;;;;;2.80;1.20;;;3.10;99.90;;;;;;4897408;29;20533;-89
2022/04/01 02:09:40;;;;;;;1.30;1.20;;;3.10;99.90;;;;;;4898276;29;20476;-89
2022/04/01 02:12:30;;;;;;;1.97;1.10;;;3.10;99.90;;;;;;4895590;29;20458;-89
2022/04/01 02:15:20;;;;;;;2.13;1.30;;;3.10;99.90;;;;;;4897924;29;20560;-89
2022/04/01 02:18:11;;;;;;;1.20;1.07;;;3.10;99.90;;;;;;4902456;29;20761;-90
2022/04/01 02:21:00;;;;;;;2.03;1.10;;;3.10;99.90;;;;;;4912513;28;20501;-89
2022/04/01 02:23:50;;;;;;;1.30;1.20;;;3.10;99.90;;;;;;4900303;29;20463;-90
2022/04/01 02:26:39;;;;;;;1.20;1.10;;;3.10;99.90;;;;;;4904344;29;20520;-89
2022/04/01 02:29:29;;;;;;;1.37;1.10;;;3.10;99.90;;;;;;4904761;29;20556;-89
2022/04/01 02:32:18;;;;;;;1.17;0.90;;;3.10;99.90;;;;;;4894930;29;20477;-89
2022/04/01 02:35:10;;;;;;;1.67;0.80;;;3.00;99.90;;;;;;4900833;29;20485;-90
2022/04/01 02:37:58;;;;;;;2.80;1.10;;;3.00;99.90;;;;;;4901212;29;20460;-89
2022/04/01 02:40:46;;;;;;;2.97;1.47;;;3.00;99.90;;;;;;4903247;29;20482;-89
2022/04/01 02:43:36;;;;;;;3.43;1.03;;;2.90;99.90;;;;;;4905088;29;20541;-90
2022/04/01 02:46:25;;;;;;;1.43;0.90;;;2.90;99.90;;;;;;4903158;29;20477;-89
2022/04/01 02:49:16;;;;;;;1.47;0.90;;;2.90;99.90;;;;;;4919240;29;20509;-89
2022/04/01 02:52:07;;;;;;;1.00;0.90;;;2.80;99.90;;;;;;4924517;29;20457;-89
2022/04/01 02:54:55;;;;;;;1.60;1.03;;;2.90;99.90;;;;;;4915557;29;20604;-89
2022/04/01 02:57:44;;;;;;;1.93;1.07;;;2.90;99.90;;;;;;4906233;29;20461;-90
2022/04/01 03:00:32;;;;;;;1.83;1.00;;;2.90;99.90;;;;;;4902490;29;20482;-89
2022/04/01 03:03:21;;;;;;;1.00;1.00;;;3.00;99.90;;;;;;4895694;29;20480;-90
2022/04/01 03:06:10;;;;;;;1.80;0.90;;;3.00;99.90;;;;;;4898713;29;20598;-90
2022/04/01 03:09:00;;;;;;;1.97;1.17;;;3.00;99.90;;;;;;4897522;29;20560;-89
2022/04/01 03:11:49;;;;;;;2.57;1.03;;;3.00;99.90;;;;;;4901418;29;20467;-91
2022/04/01 03:14:37;;;;;;;1.70;1.00;;;3.00;99.90;;;;;;4902415;29;20450;-89
2022/04/01 03:17:26;;;;;;;3.83;1.30;;;3.00;99.90;;;;;;4905737;29;20555;-89
2022/04/01 03:20:15;;;;;;;1.30;1.20;;;3.00;99.90;;;;;;4898158;29;20493;-90
2022/04/01 03:23:04;;;;;;;1.73;1.10;;;3.00;99.90;;;;;;4901110;29;20470;-89
2022/04/01 03:25:56;;;;;;;2.83;1.33;;;2.90;99.90;;;;;;4902816;29;20949;-89
2022/04/01 03:28:46;;;;;;;3.30;1.50;;;3.00;99.90;;;;;;4908224;29;20450;-89
2022/04/01 03:31:35;;;;;;;3.40;1.50;;;3.00;99.90;;;;;;4914898;29;20438;-89
2022/04/01 03:34:24;;;;;;;1.77;1.53;;;3.00;99.90;;;;;;4919185;29;20446;-89
2022/04/01 03:37:12;;;;;;;2.77;1.70;;;3.00;99.90;;;;;;4918906;28;20541;-89
2022/04/01 03:40:01;;;;;;;1.70;1.50;;;3.00;99.90;;;;;;4913050;28;20493;-90
2022/04/01 03:42:52;;;;;;;2.43;1.93;;;3.00;99.90;;;;;;4899607;29;20450;-89
2022/04/01 03:45:47;;;;;;;1.67;1.57;;;3.00;99.90;;;;;;4906172;29;20449;-89
2022/04/01 03:48:39;;;;;;;3.10;1.67;;;3.00;99.90;;;;;;4917406;29;20466;-89
2022/04/01 03:51:31;;;;;;;1.83;1.57;;;3.00;99.90;;;;;;4925682;28;20434;-90
2022/04/01 03:54:19;;;;;;;2.17;1.70;;;2.90;99.90;;;;;;4913940;28;20466;-89
2022/04/01 03:57:09;;;;;;;2.20;1.70;;;2.90;99.90;;;;;;4907451;29;20548;-89
2022/04/01 03:59:59;;;;;;;2.13;1.77;;;2.90;99.90;;;;;;4907201;29;20488;-89
2022/04/01 04:02:49;;;;;;;3.00;2.10;;;2.90;99.90;;;;;;4897457;29;20454;-89
2022/04/01 04:05:39;;;;;;;5.60;2.13;;;2.90;99.90;;;;;;4895511;29;20469;-89
2022/04/01 04:08:28;;;;;;;2.70;2.20;;;2.90;99.90;;;;;;4905034;29;20458;-89
2022/04/01 04:11:23;;;;;;;2.80;2.53;;;2.90;99.90;;;;;;4901462;29;20497;-89
2022/04/01 04:14:12;;;;;;;3.10;2.10;;;3.00;99.90;;;;;;4896792;29;20506;-90
2022/04/01 04:17:10;;;;;;;2.10;1.77;;;3.10;99.90;;;;;;4900214;29;20482;-89
2022/04/01 04:20:06;;;;;;;3.63;2.33;;;3.00;99.90;;;;;;4898026;29;20522;-89
2022/04/01 04:23:08;;;;;;;2.90;2.20;;;3.00;99.90;;;;;;4901219;29;20458;-89
2022/04/01 04:26:01;;;;;;;4.67;2.27;;;3.00;99.90;;;;;;4900506;29;20511;-89
2022/04/01 04:28:56;;;;;;;2.83;2.50;;;2.90;99.90;;;;;;4898619;29;20528;-90
2022/04/01 04:31:53;;;;;;;2.00;1.80;;;3.00;99.90;;;;;;4895009;29;20510;-89
2022/04/01 04:34:48;;;;;;;2.87;1.90;;;3.00;99.90;;;;;;4894937;29;20458;-90
2022/04/01 04:37:46;;;;;;;7.00;2.80;;;3.00;99.90;;;;;;4896476;29;20828;-90
2022/04/01 04:40:35;;;;;;;2.70;2.47;;;3.00;99.90;;;;;;4902095;29;20677;-91
2022/04/01 04:43:24;;;;;;;3.10;2.50;;;3.00;99.90;;;;;;4894634;29;20457;-91
2022/04/01 04:46:12;;;;;;;4.20;2.40;;;3.00;99.90;;;;;;4904673;29;20577;-91
2022/04/01 04:49:01;;;;;;;2.93;2.13;;;3.10;99.90;;;;;;4902113;29;20458;-90
2022/04/01 04:51:53;;;;;;;2.90;2.40;;;3.10;99.90;;;;;;4902978;29;20526;-91
2022/04/01 04:54:42;;;;;;;2.83;2.37;;;3.10;99.90;;;;;;4893462;29;20459;-90
2022/04/01 04:57:31;;;;;;;3.63;2.63;;;3.10;99.90;;;;;;4894262;29;20557;-93
2022/04/01 05:00:21;;;;;;;3.10;2.67;;;3.10;99.90;;;;;;4900234;29;20561;-89
2022/04/01 05:03:53;;;;;;;3.27;2.70;;;3.10;99.90;;;;;;4902028;29;20509;-90
2022/04/01 05:06:50;;;;;;;3.10;2.80;;;3.10;99.90;;;;;;4897307;29;20467;-89
2022/04/01 05:09:49;;;;;;;2.50;2.30;;;3.10;99.90;;;;;;4898257;29;20586;-91
2022/04/01 05:12:53;;;;;;;3.63;2.57;;;3.10;99.90;;;;;;4894927;29;20530;-90
2022/04/01 05:15:42;;;;;;;3.90;3.00;;;3.10;99.90;;;;;;4895334;29;20450;-90
2022/04/01 05:18:39;;;;;;;3.80;2.90;;;3.10;99.90;;;;;;4891143;29;20634;-90
2022/04/01 05:21:36;;;;;;;4.33;3.00;;;3.10;99.90;;;;;;4903344;29;20458;-93
2022/04/01 05:24:33;;;;;;;5.80;3.30;;;3.10;99.90;;;;;;4903134;29;20461;-93
2022/04/01 05:27:28;;;;;;;2.93;2.60;;;3.00;99.90;;;;;;4904225;28;20458;-91
2022/04/01 05:30:18;;;;;;;8.60;4.73;;;3.10;99.90;;;;;;4896718;29;20565;-92
2022/04/01 05:33:11;;;;;;;6.07;4.03;;;3.10;99.90;;;;;;4897748;29;20912;-92
2022/04/01 05:36:06;;;;;;;3.70;2.90;;;3.10;99.90;;;;;;4893990;29;20453;-90
2022/04/01 05:38:56;;;;;;;4.87;4.47;;;3.10;99.90;;;;;;4895970;29;20453;-90
2022/04/01 05:41:46;;;;;;;4.10;3.30;;;3.10;99.90;;;;;;4894636;29;20457;-92
2022/04/01 05:44:38;;;;;;;4.30;3.03;;;3.10;99.90;;;;;;4897953;29;20456;-92
2022/04/01 05:47:28;;;;;;;3.67;3.07;;;3.00;99.90;;;;;;4897487;29;20449;-91
2022/04/01 05:50:22;;;;;;;4.50;3.77;;;3.10;99.90;;;;;;4894788;29;20990;-92
2022/04/01 05:53:14;;;;;;;3.50;3.20;;;3.10;99.90;;;;;;4896602;29;20454;-91
2022/04/01 05:56:04;;;;;;;4.30;3.33;;;3.10;99.90;;;;;;4898736;29;20604;-93
2022/04/01 05:58:53;;;;;;;4.77;3.73;;;3.10;99.90;;;;;;4897704;29;20461;-91
2022/04/01 06:01:53;;;;;;;4.67;3.50;;;3.10;99.90;;;;;;4895695;29;20549;-92
2022/04/01 06:05:05;;;;;;;4.47;3.20;;;3.10;99.90;;;;;;4894772;29;20815;-92
2022/04/01 06:08:03;;;;;;;4.30;3.27;;;3.10;99.90;;;;;;4896621;29;20478;-91
2022/04/01 06:11:10;;;;;;;6.87;3.80;;;3.10;99.90;;;;;;4896475;29;20488;-92
2022/04/01 06:14:03;;;;;;;4.03;2.90;;;3.10;99.90;;;;;;4897709;29;20455;-92
2022/04/01 06:17:02;;;;;;;4.47;4.07;;;3.20;99.90;;;;;;4894205;29;20561;-91
2022/04/01 06:19:55;;;;;;;3.40;3.10;;;3.20;99.90;;;;;;4900537;29;20493;-91
2022/04/01 06:22:50;;;;;;;3.20;2.80;;;3.20;99.90;;;;;;4896698;29;20471;-92
2022/04/01 06:25:43;;;;;;;3.70;3.23;;;3.30;99.90;;;;;;4898548;29;20465;-92
2022/04/01 06:28:35;;;;;;;4.03;3.20;;;3.20;99.90;;;;;;4904882;29;20461;-92
2022/04/01 06:31:27;;;;;;;4.23;3.20;;;3.30;99.90;;;;;;4902206;29;20450;-92
2022/04/01 06:34:23;;;;;;;4.27;3.10;;;3.30;99.90;;;;;;4904411;29;20510;-93
2022/04/01 06:37:28;;;;;;;3.97;3.13;;;3.30;99.90;;;;;;4906158;29;20469;-93
2022/04/01 06:40:22;;;;;;;4.77;3.40;;;3.40;99.90;;;;;;4901181;29;20485;-92
2022/04/01 06:43:10;;;;;;;5.60;3.50;;;3.40;99.90;;;;;;4900865;29;20477;-92
2022/04/01 06:45:59;;;;;;;7.70;5.70;;;3.40;99.90;;;;;;4902920;29;20526;-93
2022/04/01 06:48:51;;;;;;;4.93;3.90;;;3.40;99.90;;;;;;4900779;29;20461;-92
2022/04/01 06:55:08;;;;;;;6.53;4.00;;;3.50;99.90;;;;;;4898375;29;20464;-93
2022/04/01 06:58:05;;;;;;;6.40;4.10;;;3.50;99.90;;;;;;4900676;29;20536;-91
2022/04/01 07:00:54;;;;;;;5.93;3.60;;;3.50;99.90;;;;;;4901270;29;20480;-93
2022/04/01 07:03:42;;;;;;;3.43;2.93;;;3.60;99.90;;;;;;4898373;29;20819;-93
2022/04/01 07:06:31;;;;;;;4.10;3.60;;;3.60;99.90;;;;;;4899665;29;20454;-92
2022/04/01 07:09:23;;;;;;;3.33;3.03;;;3.60;99.90;;;;;;4901240;29;20481;-92
2022/04/01 07:12:13;;;;;;;4.70;3.73;;;3.70;99.90;;;;;;4912176;29;20461;-93
2022/04/01 07:15:03;;;;;;;6.63;3.53;;;3.70;99.90;;;;;;4913458;29;20465;-92
2022/04/01 07:17:58;;;;;;;3.40;3.10;;;3.70;99.90;;;;;;4904885;29;20466;-91
2022/04/01 07:20:47;;;;;;;10.57;5.07;;;3.70;99.90;;;;;;4898372;29;20493;-91
2022/04/01 07:23:36;;;;;;;6.23;4.13;;;3.70;99.90;;;;;;4903894;29;20537;-91
2022/04/01 07:26:27;;;;;;;4.43;3.87;;;3.80;99.90;;;;;;4898023;29;20458;-91
2022/04/01 07:29:16;;;;;;;4.97;4.23;;;3.80;99.90;;;;;;4901505;29;20460;-91
2022/04/01 07:35:14;;;;;;;4.87;4.00;;;3.90;99.90;;;;;;4901131;29;20534;-92
2022/04/01 07:38:03;;;;;;;3.97;3.57;;;3.80;99.90;;;;;;4898824;29;20504;-92
2022/04/01 07:40:52;;;;;;;5.47;4.00;;;3.90;99.90;;;;;;4904687;29;20542;-92
2022/04/01 07:43:42;;;;;;;5.80;3.93;;;3.90;99.90;;;;;;4900421;29;20462;-92
2022/04/01 07:46:31;;;;;;;3.57;3.23;;;4.00;99.90;;;;;;4908795;29;20463;-92
2022/04/01 07:49:20;;;;;;;6.10;3.73;;;4.00;99.90;;;;;;4901780;29;20534;-91
2022/04/01 07:52:40;;;;;;;3.80;3.20;;;4.00;99.90;;;;;;4907616;29;20962;-91
2022/04/01 07:55:39;;;;;;;4.53;3.27;;;4.10;99.90;;;;;;4900539;29;20450;-91
2022/04/01 07:58:27;;;;;;;4.30;3.90;;;4.10;99.90;;;;;;4900708;29;20833;-91
2022/04/01 08:01:18;;;;;;;3.90;3.53;;;4.10;99.90;;;;;;4909994;29;20495;-91
2022/04/01 08:04:07;;;;;;;4.97;4.27;;;4.10;99.90;;;;;;4914484;29;20446;-93
2022/04/01 08:06:56;;;;;;;5.90;4.10;;;4.20;99.90;;;;;;4915127;29;20438;-94
2022/04/01 08:09:45;;;;;;;6.20;3.97;;;4.10;99.90;;;;;;4918523;29;20470;-94
2022/04/01 08:12:39;;;;;;;4.53;3.57;;;4.10;99.90;;;;;;4915381;29;20587;-91
2022/04/01 08:15:28;;;;;;;4.23;3.93;;;4.20;99.90;;;;;;4917295;29;20438;-92
2022/04/01 08:18:21;;;;;;;4.70;4.17;;;4.20;99.90;;;;;;4908101;29;20474;-92
2022/04/01 08:21:09;;;;;;;5.37;3.97;;;4.30;99.90;;;;;;4903099;29;20494;-91
2022/04/01 08:23:58;;;;;;;4.20;3.80;;;4.30;99.90;;;;;;4908163;29;20457;-91
2022/04/01 08:26:47;;;;;;;4.17;3.77;;;4.40;99.90;;;;;;4906319;29;20824;-91
2022/04/01 08:29:36;;;;;;;5.93;3.80;;;4.40;99.90;;;;;;4902012;29;20474;-91
2022/04/01 08:32:25;;;;;;;4.90;4.30;;;4.50;99.90;;;;;;4912024;29;20458;-91
2022/04/01 08:35:17;;;;;;;5.13;3.90;;;4.50;99.90;;;;;;4909691;29;20458;-91
2022/04/01 08:38:06;;;;;;;5.90;5.30;;;4.50;99.90;;;;;;4907048;29;20472;-92
2022/04/01 08:40:56;;;;;;;4.80;4.30;;;4.60;99.90;;;;;;4916406;29;20485;-93
2022/04/01 08:43:46;;;;;;;4.40;4.00;;;4.50;99.90;;;;;;4921332;29;20466;-93
2022/04/01 08:46:35;;;;;;;4.20;3.63;;;4.50;99.90;;;;;;4922812;29;20458;-91
2022/04/01 08:49:24;;;;;;;4.40;4.00;;;4.60;99.90;;;;;;4921456;29;20548;-93
2022/04/01 08:52:15;;;;;;;4.93;4.17;;;4.70;99.90;;;;;;4913641;29;20458;-93
2022/04/01 08:55:05;;;;;;;7.53;4.20;;;4.80;99.90;;;;;;4923646;28;20445;-94
2022/04/01 08:57:54;;;;;;;5.43;4.93;;;4.80;99.90;;;;;;4921850;29;20469;-94
2022/04/01 09:00:43;;;;;;;5.07;4.57;;;4.70;99.90;;;;;;4918280;29;20493;-95
2022/04/01 09:03:35;;;;;;;6.40;4.43;;;4.80;99.90;;;;;;4915941;28;20517;-93
2022/04/01 09:06:24;;;;;;;5.17;4.67;;;4.80;99.90;;;;;;4913412;29;20453;-92
2022/04/01 09:09:25;;;;;;;4.50;4.10;;;4.90;99.90;;;;;;4918810;29;20462;-93
2022/04/01 09:12:15;;;;;;;4.53;4.13;;;4.80;99.90;;;;;;4912126;29;20466;-92
2022/04/01 09:15:06;;;;;;;5.00;4.33;;;4.90;99.90;;;;;;4918668;29;20466;-93
2022/04/01 09:17:55;;;;;;;4.07;3.70;;;4.90;99.90;;;;;;4914317;29;20457;-94
2022/04/01 09:20:45;;;;;;;6.50;4.20;;;5.00;99.90;;;;;;4921387;28;20481;-93
2022/04/01 09:23:35;;;;;;;4.63;3.60;;;4.90;99.90;;;;;;4921173;29;20450;-93
2022/04/01 09:26:31;;;;;;;5.80;3.53;;;5.10;99.90;;;;;;4919010;28;20458;-94
2022/04/01 09:29:20;;;;;;;6.50;3.60;;;5.10;99.90;;;;;;4923305;28;20512;-93
2022/04/01 09:32:09;;;;;;;5.00;3.63;;;5.10;99.90;;;;;;4912428;29;20446;-94
2022/04/01 09:34:58;;;;;;;3.40;3.10;;;5.10;99.90;;;;;;4915347;29;20535;-91
2022/04/01 09:37:51;;;;;;;3.60;3.30;;;5.10;99.90;;;;;;4917592;29;20446;-93
2022/04/01 09:40:39;;;;;;;3.90;3.17;;;5.20;99.90;;;;;;4915542;29;20470;-93
2022/04/01 09:43:37;;;;;;;3.10;2.90;;;5.20;99.90;;;;;;4911461;29;20502;-92
2022/04/01 09:46:27;;;;;;;4.60;2.90;;;5.20;99.90;;;;;;4903420;29;20446;-93
2022/04/01 09:49:31;;;;;;;5.33;3.00;;;5.20;99.90;;;;;;4904107;29;21123;-91
2022/04/01 09:52:28;;;;;;;5.10;3.17;;;5.20;99.90;;;;;;4905005;29;20969;-92
2022/04/01 09:55:17;;;;;;;3.10;2.80;;;5.20;99.90;;;;;;4904115;29;20465;-92
2022/04/01 09:58:13;;;;;;;3.70;3.20;;;5.30;99.90;;;;;;4904821;29;20814;-93
2022/04/01 10:01:04;;;;;;;3.83;3.17;;;5.20;99.90;;;;;;4900362;29;20485;-92
2022/04/01 10:03:58;;;;;;;3.53;3.23;;;5.30;99.90;;;;;;4900193;29;20462;-93
2022/04/01 10:06:48;;;;;;;3.43;3.00;;;5.30;99.90;;;;;;4902721;29;20562;-91
2022/04/01 10:09:38;;;;;;;5.27;2.83;;;5.40;99.90;;;;;;4898934;29;20470;-92
2022/04/01 10:12:47;;;;;;;4.77;3.17;;;5.30;99.90;;;;;;4900651;29;20472;-91
2022/04/01 10:15:37;;;;;;;3.77;3.00;;;5.40;99.90;;;;;;4903424;29;20482;-91
2022/04/01 10:18:29;;;;;;;5.43;3.23;;;5.40;99.90;;;;;;4898536;29;20458;-91
2022/04/01 10:21:19;;;;;;;5.30;2.80;;;5.50;99.90;;;;;;4906487;29;20865;-91
2022/04/01 10:24:17;;;;;;;2.83;2.60;;;5.50;99.90;;;;;;4906997;29;20468;-91
2022/04/01 10:27:17;;;;;;;2.83;2.53;;;5.60;99.90;;;;;;4903891;29;20550;-92
2022/04/01 10:30:22;;;;;;;3.37;2.87;;;5.60;99.90;;;;;;4905045;29;20477;-92
2022/04/01 10:33:23;;;;;;;4.30;2.40;;;5.70;99.90;;;;;;4904654;29;20454;-93
2022/04/01 10:36:31;;;;;;;2.53;1.93;;;5.70;99.90;;;;;;4898731;29;20457;-91
2022/04/01 10:39:50;;;;;;;3.80;2.13;;;5.60;99.90;;;;;;4903225;29;20489;-92
2022/04/01 10:42:43;;;;;;;2.77;2.17;;;5.60;99.90;;;;;;4900648;29;20465;-93
2022/04/01 10:45:34;;;;;;;7.90;2.50;;;5.50;99.90;;;;;;4905513;29;20988;-92
2022/04/01 10:51:41;;;;;;;3.90;2.47;;;5.50;99.90;;;;;;4906511;29;20453;-94
2022/04/01 17:15:13;;;;;;;2.03;1.70;;;4.80;99.90;;;;;;4882094;29;20561;-91
2022/04/01 17:18:22;;;;;;;1.50;1.40;;;4.70;99.90;;;;;;4877925;29;20456;-91
2022/04/01 17:21:10;;;;;;;2.10;1.50;;;4.60;99.90;;;;;;4878109;29;20511;-93
2022/04/01 17:24:00;;;;;;;3.03;1.60;;;4.50;99.90;;;;;;4880188;29;20483;-90
2022/04/01 17:26:50;;;;;;;2.20;1.50;;;4.50;99.90;;;;;;4875547;29;20458;-91
2022/04/01 17:29:39;;;;;;;1.90;1.70;;;4.50;99.90;;;;;;4881443;29;20450;-91
2022/04/01 17:32:30;;;;;;;2.70;2.10;;;4.40;99.90;;;;;;4876781;29;20462;-91
2022/04/01 17:35:23;;;;;;;2.67;2.20;;;4.40;99.90;;;;;;4879126;29;20486;-90
2022/04/01 17:38:12;;;;;;;1.83;1.57;;;4.40;99.90;;;;;;4881399;29;20458;-90
2022/04/01 17:41:03;;;;;;;4.03;1.40;;;4.40;99.90;;;;;;4881572;29;20478;-91
2022/04/01 17:43:53;;;;;;;3.60;1.90;;;4.40;99.90;;;;;;4876926;29;20490;-92
2022/04/01 17:46:42;;;;;;;1.97;1.43;;;4.30;99.90;;;;;;4878528;29;20855;-91
2022/04/01 17:49:31;;;;;;;4.10;1.50;;;4.30;99.90;;;;;;4879071;29;20755;-91
2022/04/01 17:52:23;;;;;;;1.63;1.40;;;4.30;99.90;;;;;;4880807;29;20722;-90
2022/04/01 17:55:12;;;;;;;2.47;1.60;;;4.30;99.90;;;;;;4882798;29;20485;-90
2022/04/01 17:58:04;;;;;;;2.10;1.90;;;4.30;99.90;;;;;;4880281;29;20914;-91
2022/04/01 18:00:54;;;;;;;2.40;1.40;;;4.30;99.90;;;;;;4879593;29;21244;-90
2022/04/01 18:03:52;;;;;;;1.80;1.50;;;4.20;99.90;;;;;;4876163;29;20486;-91
2022/04/01 18:06:45;;;;;;;2.60;1.80;;;4.20;99.90;;;;;;4877224;29;20451;-93
2022/04/01 18:09:38;;;;;;;2.73;1.60;;;4.10;99.90;;;;;;4877247;29;20447;-91
2022/04/01 18:12:33;;;;;;;2.73;1.70;;;4.20;99.90;;;;;;4873145;29;20449;-90
2022/04/01 18:15:24;;;;;;;2.63;1.50;;;4.20;99.90;;;;;;4885021;29;20527;-91
2022/04/01 18:18:15;;;;;;;3.67;1.77;;;4.20;99.90;;;;;;4894521;29;20696;-90
2022/04/01 18:21:04;;;;;;;2.50;1.90;;;4.20;99.90;;;;;;4894735;29;20515;-92
2022/04/01 18:23:54;;;;;;;4.53;1.87;;;4.20;99.90;;;;;;4887599;29;20511;-93
2022/04/01 18:26:50;;;;;;;2.17;1.50;;;4.10;99.90;;;;;;4893198;29;20451;-93
2022/04/01 18:29:43;;;;;;;2.80;1.47;;;4.10;99.90;;;;;;4890721;29;20436;-92
2022/04/01 18:32:45;;;;;;;2.33;1.67;;;4.10;99.90;;;;;;4885865;29;20470;-94
2022/04/01 18:35:36;;;;;;;2.30;1.57;;;4.00;99.90;;;;;;4883225;29;20930;-91
2022/04/01 18:38:25;;;;;;;1.60;1.50;;;4.10;99.90;;;;;;4871592;29;20447;-90
2022/04/01 18:41:16;;;;;;;1.60;1.50;;;4.10;99.90;;;;;;4878958;29;20467;-92
2022/04/01 18:44:07;;;;;;;2.43;1.90;;;4.10;99.90;;;;;;4874362;29;20486;-90
2022/04/01 18:47:04;;;;;;;2.30;1.60;;;4.10;99.90;;;;;;4879372;29;20466;-92
2022/04/01 18:49:57;;;;;;;2.97;1.97;;;4.00;99.90;;;;;;4885089;29;20554;-92
2022/04/01 18:53:02;;;;;;;1.57;1.47;;;4.00;99.90;;;;;;4887396;29;20455;-92
2022/04/01 18:56:29;;;;;;;3.40;1.77;;;4.10;99.90;;;;;;4885225;29;20542;-92
2022/04/01 19:00:15;;;;;;;2.50;2.30;;;4.00;99.90;;;;;;4881175;29;20450;-90
2022/04/01 19:03:18;;;;;;;2.10;1.90;;;4.00;99.90;;;;;;4843341;29;20462;-94
2022/04/01 19:07:04;;;;;;;3.07;2.17;;;3.90;99.90;;;;;;4887102;29;20450;-95
2022/04/01 19:10:29;;;;;;;2.70;1.60;;;3.90;99.90;;;;;;4842407;29;20488;-91
2022/04/01 19:26:29;;;;;;;5.03;3.13;;;3.90;99.90;;;;;;4890097;29;20506;-94
2022/04/01 19:29:18;;;;;;;1.80;1.70;;;3.90;99.90;;;;;;4889035;29;21149;-94
2022/04/01 19:32:15;;;;;;;3.43;2.00;;;3.90;99.90;;;;;;4888131;29;20465;-92
2022/04/01 19:35:14;;;;;;;2.83;1.93;;;3.90;99.90;;;;;;4877880;29;20557;-90
2022/04/01 19:38:08;;;;;;;2.73;2.37;;;3.90;99.90;;;;;;4875998;29;20547;-93
2022/04/01 19:44:12;;;;;;;2.60;1.90;;;3.90;99.90;;;;;;4874469;29;20455;-93
2022/04/01 19:56:44;;;;;;;2.37;2.00;;;3.80;99.90;;;;;;4879426;29;20463;-90
2022/04/01 19:59:36;;;;;;;3.53;2.00;;;3.90;99.90;;;;;;4876531;29;20487;-89
2022/04/01 20:02:30;;;;;;;2.10;1.90;;;3.90;99.90;;;;;;4882266;29;20474;-88
2022/04/01 20:05:21;;;;;;;1.60;1.50;;;3.90;99.90;;;;;;4881014;29;20575;-88
2022/04/01 20:08:13;;;;;;;3.50;1.90;;;3.80;99.90;;;;;;4876671;29;20552;-88
2022/04/01 20:11:04;;;;;;;4.93;2.70;;;3.80;99.90;;;;;;4884262;29;20587;-88
2022/04/01 20:13:55;;;;;;;3.10;1.67;;;3.90;99.90;;;;;;4879707;29;20551;-89
2022/04/01 20:16:49;;;;;;;3.53;1.77;;;3.90;99.90;;;;;;4884955;29;21054;-91
2022/04/01 20:19:40;;;;;;;2.57;1.90;;;3.90;99.90;;;;;;4876931;29;20451;-90
2022/04/01 20:25:38;;;;;;;2.30;2.10;;;3.90;99.90;;;;;;4881297;29;20482;-89
2022/04/01 20:28:28;;;;;;;2.40;1.70;;;3.90;99.90;;;;;;4879633;29;20447;-89
2022/04/01 20:31:19;;;;;;;2.30;2.10;;;3.90;99.90;;;;;;4898920;29;21251;-91
2022/04/01 20:34:18;;;;;;;2.37;2.00;;;3.80;99.90;;;;;;4891863;29;20459;-89
2022/04/01 20:37:13;;;;;;;2.60;2.23;;;3.90;99.90;;;;;;4882014;29;20502;-90
2022/04/01 20:40:02;;;;;;;2.73;2.00;;;3.90;99.90;;;;;;4877523;29;20466;-92
2022/04/01 20:42:51;;;;;;;4.17;2.50;;;3.80;99.90;;;;;;4875809;29;20503;-89
2022/04/01 20:45:44;;;;;;;2.70;2.20;;;3.80;99.90;;;;;;4880668;29;20551;-89
2022/04/01 20:48:35;;;;;;;4.33;2.20;;;3.80;99.90;;;;;;4880799;29;20455;-89
2022/04/01 20:51:25;;;;;;;2.13;1.90;;;3.80;99.90;;;;;;4878315;29;20450;-89
2022/04/01 20:54:22;;;;;;;2.23;2.03;;;3.80;99.90;;;;;;4874753;29;20478;-89
2022/04/01 20:57:10;;;;;;;2.23;2.03;;;3.80;99.90;;;;;;4876029;29;20521;-89
2022/04/01 21:00:14;;;;;;;2.30;2.10;;;3.80;99.90;;;;;;4877764;29;20501;-89
2022/04/01 21:03:03;;;;;;;2.97;2.30;;;3.80;99.90;;;;;;4875588;29;20890;-88
2022/04/01 21:05:56;;;;;;;5.10;2.30;;;3.80;99.90;;;;;;4874092;29;20562;-89
2022/04/01 21:08:47;;;;;;;2.40;2.20;;;3.80;99.90;;;;;;4872794;29;20515;-89
2022/04/01 21:11:40;;;;;;;2.17;1.97;;;3.80;99.90;;;;;;4875494;29;20455;-89
2022/04/01 21:14:29;;;;;;;1.93;1.77;;;3.80;99.90;;;;;;4871047;29;20470;-89
2022/04/01 21:17:21;;;;;;;2.80;2.10;;;3.80;99.90;;;;;;4876853;29;20475;-89
2022/04/01 21:20:10;;;;;;;2.83;2.40;;;3.80;99.90;;;;;;4874884;29;20478;-90
2022/04/01 21:22:59;;;;;;;2.33;2.13;;;3.80;99.90;;;;;;4874620;29;20873;-89
2022/04/01 21:29:26;;;;;;;2.40;2.10;;;3.80;99.90;;;;;;4894269;29;20455;-91
2022/04/01 21:32:18;;;;;;;2.80;2.30;;;3.80;99.90;;;;;;4896310;29;20469;-91
2022/04/01 21:35:13;;;;;;;2.60;2.40;;;3.70;99.90;;;;;;4878092;29;21006;-89
2022/04/01 21:38:16;;;;;;;4.67;2.60;;;3.70;99.90;;;;;;4872511;29;20570;-89
2022/04/01 21:44:22;;;;;;;2.00;1.90;;;3.70;99.90;;;;;;4875551;29;20506;-89
2022/04/01 21:47:14;;;;;;;2.47;2.27;;;3.70;99.90;;;;;;4876936;29;20454;-89
2022/04/01 21:50:17;;;;;;;5.17;2.80;;;3.60;99.90;;;;;;4877935;29;20534;-89
2022/04/01 21:53:08;;;;;;;2.63;2.23;;;3.60;99.90;;;;;;4876947;29;20470;-89
2022/04/01 21:56:03;;;;;;;2.53;2.30;;;3.60;99.90;;;;;;4877343;29;20473;-88
2022/04/01 21:58:55;;;;;;;3.40;2.17;;;3.60;99.90;;;;;;4873938;29;20459;-89
2022/04/01 22:01:47;;;;;;;2.30;2.10;;;3.60;99.90;;;;;;4878535;29;20538;-89
2022/04/01 22:04:46;;;;;;;3.50;2.10;;;3.60;99.90;;;;;;4873744;29;20473;-88
2022/04/01 22:07:37;;;;;;;3.40;2.47;;;3.60;99.90;;;;;;4879925;29;20469;-89
2022/04/01 22:10:26;;;;;;;2.87;2.50;;;3.60;99.90;;;;;;4879856;29;20494;-89
2022/04/01 22:13:16;;;;;;;2.50;2.03;;;3.60;99.90;;;;;;4874208;29;20546;-89
2022/04/01 22:19:18;;;;;;;2.90;2.63;;;3.60;99.90;;;;;;4872916;29;20465;-89
2022/04/01 22:22:15;;;;;;;2.70;2.10;;;3.50;99.90;;;;;;4874596;29;20479;-90
2022/04/01 22:25:12;;;;;;;2.73;2.00;;;3.60;99.90;;;;;;4873503;29;20535;-90